Time;durP1;ratioP1;P1;durP2;ratioP2;P2;SDS_P1;SDS_P2;PMS_P1;PMS_P2;Temp;Humidity;BMP_temperature;BMP_pressure;BME280_temperature;BME280_humidity;BME280_pressure;Samples;Min_cycle;Max_cycle;Signal;HPM_P1;HPM_P2
2023/08/07 00:01:00;;;;;;;0.75;0.70;;;;;;;;;;5020941;28;20209;-84
2023/08/07 00:03:30;;;;;;;0.65;0.65;;;;;;;;;;5012570;28;20518;-86
2023/08/07 00:06:03;;;;;;;0.50;0.50;;;;;;;;;;5020624;28;20198;-86
2023/08/07 00:08:33;;;;;;;0.50;0.50;;;;;;;;;;5016603;28;20263;-84
2023/08/07 00:11:08;;;;;;;0.70;0.70;;;;;;;;;;5014131;28;20207;-84
2023/08/07 00:13:36;;;;;;;0.60;0.60;;;;;;;;;;5013633;28;20198;-86
2023/08/07 00:16:07;;;;;;;0.60;0.60;;;;;;;;;;5012330;28;20649;-84
2023/08/07 00:18:37;;;;;;;1.02;1.02;;;;;;;;;;5015280;28;20234;-84
2023/08/07 00:21:07;;;;;;;0.60;0.60;;;;;;;;;;5013007;28;20236;-83
2023/08/07 00:23:37;;;;;;;0.75;0.75;;;;;;;;;;5031379;28;20211;-84
2023/08/07 00:26:07;;;;;;;0.70;0.70;;;;;;;;;;5030912;28;20214;-87
2023/08/07 00:28:37;;;;;;;0.60;0.60;;;;;;;;;;5032996;28;20242;-87
2023/08/07 00:31:08;;;;;;;0.50;0.50;;;;;;;;;;5031462;28;20655;-84
2023/08/07 00:33:37;;;;;;;0.63;0.63;;;;;;;;;;5032275;28;20210;-85
2023/08/07 00:36:08;;;;;;;0.50;0.50;;;;;;;;;;5030316;28;20206;-84
2023/08/07 00:38:39;;;;;;;0.70;0.70;;;;;;;;;;5030251;28;20208;-85
2023/08/07 00:41:09;;;;;;;0.55;0.55;;;;;;;;;;5031085;28;20210;-85
2023/08/07 00:43:38;;;;;;;1.08;0.68;;;;;;;;;;5020839;28;20227;-87
2023/08/07 00:46:08;;;;;;;0.70;0.70;;;;;;;;;;5010698;28;20213;-84
2023/08/07 00:48:38;;;;;;;0.90;0.90;;;;;;;;;;5018949;28;20626;-86
2023/08/07 00:51:11;;;;;;;0.70;0.70;;;;;;;;;;5030290;28;20836;-85
2023/08/07 00:53:43;;;;;;;0.50;0.50;;;;;;;;;;5023956;28;20236;-85
2023/08/07 00:56:13;;;;;;;0.70;0.70;;;;;;;;;;5019339;28;20198;-85
2023/08/07 00:58:45;;;;;;;0.52;0.52;;;;;;;;;;5020712;28;20212;-85
2023/08/07 01:01:19;;;;;;;0.52;0.52;;;;;;;;;;5028936;28;20200;-84
2023/08/07 01:03:50;;;;;;;0.90;0.90;;;;;;;;;;5019104;28;20227;-85
2023/08/07 01:06:20;;;;;;;0.50;0.50;;;;;;;;;;5011578;28;20211;-84
2023/08/07 01:08:50;;;;;;;0.70;0.70;;;;;;;;;;5022409;28;20295;-84
2023/08/07 01:11:22;;;;;;;0.60;0.60;;;;;;;;;;5027662;28;20194;-84
2023/08/07 01:13:58;;;;;;;0.70;0.70;;;;;;;;;;5011365;28;20278;-84
2023/08/07 01:16:35;;;;;;;0.60;0.60;;;;;;;;;;5026254;28;20206;-83
2023/08/07 01:19:10;;;;;;;4.97;0.65;;;;;;;;;;5023905;28;20763;-86
2023/08/07 01:21:42;;;;;;;0.88;0.88;;;;;;;;;;5013828;28;20265;-86
2023/08/07 01:24:10;;;;;;;0.60;0.60;;;;;;;;;;4992190;28;20273;-84
2023/08/07 01:29:35;;;;;;;0.50;0.50;;;;;;;;;;5030720;26;20472;-84
2023/08/07 01:32:11;;;;;;;0.98;0.98;;;;;;;;;;5030745;28;20188;-85
2023/08/07 01:34:42;;;;;;;0.70;0.70;;;;;;;;;;5030221;28;20225;-84
2023/08/07 01:37:13;;;;;;;0.60;0.60;;;;;;;;;;5040074;28;20317;-85
2023/08/07 01:39:42;;;;;;;0.70;0.70;;;;;;;;;;5050372;28;20201;-86
2023/08/07 01:42:13;;;;;;;0.80;0.80;;;;;;;;;;5049326;28;20218;-85
2023/08/07 01:44:42;;;;;;;0.82;0.82;;;;;;;;;;5049671;28;20206;-86
2023/08/07 01:47:13;;;;;;;0.93;0.73;;;;;;;;;;5049144;28;20192;-85
2023/08/07 01:49:42;;;;;;;1.05;1.05;;;;;;;;;;5050022;28;20588;-84
2023/08/07 01:52:15;;;;;;;1.10;1.10;;;;;;;;;;5050072;28;20210;-86
2023/08/07 01:54:49;;;;;;;0.70;0.70;;;;;;;;;;5049645;28;20542;-85
2023/08/07 01:57:20;;;;;;;0.95;0.95;;;;;;;;;;5048930;28;20247;-85
2023/08/07 01:59:52;;;;;;;0.77;0.77;;;;;;;;;;5050297;28;20212;-84
2023/08/07 02:02:22;;;;;;;1.30;0.83;;;;;;;;;;5050381;28;20291;-85
2023/08/07 02:04:52;;;;;;;0.87;0.87;;;;;;;;;;5040966;28;20225;-84
2023/08/07 02:07:21;;;;;;;0.77;0.77;;;;;;;;;;5050127;28;20242;-85
2023/08/07 02:09:55;;;;;;;0.90;0.90;;;;;;;;;;5049107;28;20235;-84
2023/08/07 02:12:24;;;;;;;0.73;0.73;;;;;;;;;;5031216;28;20206;-84
2023/08/07 02:14:55;;;;;;;1.70;0.90;;;;;;;;;;5049407;28;20215;-84
2023/08/07 02:17:26;;;;;;;0.70;0.70;;;;;;;;;;5049931;28;20235;-85
2023/08/07 02:20:00;;;;;;;0.87;0.87;;;;;;;;;;5050079;28;20313;-85
2023/08/07 02:22:29;;;;;;;1.23;1.13;;;;;;;;;;5050034;28;20593;-85
2023/08/07 02:25:03;;;;;;;0.80;0.80;;;;;;;;;;5049006;28;20744;-85
2023/08/07 02:27:40;;;;;;;0.90;0.90;;;;;;;;;;5048990;28;20198;-85
2023/08/07 02:30:13;;;;;;;0.80;0.80;;;;;;;;;;5049360;28;20742;-85
2023/08/07 02:32:53;;;;;;;0.97;0.80;;;;;;;;;;5049259;28;20225;-84
2023/08/07 02:35:26;;;;;;;0.70;0.63;;;;;;;;;;5049259;28;20225;-86
2023/08/07 02:37:56;;;;;;;0.80;0.80;;;;;;;;;;5049229;28;20817;-85
2023/08/07 02:40:30;;;;;;;0.80;0.80;;;;;;;;;;5049398;28;20704;-86
2023/08/07 02:43:03;;;;;;;1.47;1.37;;;;;;;;;;5049571;28;20358;-85
2023/08/07 02:45:32;;;;;;;1.00;0.93;;;;;;;;;;5048734;28;20213;-85
2023/08/07 02:48:08;;;;;;;0.70;0.70;;;;;;;;;;5049146;28;20203;-85
2023/08/07 02:50:39;;;;;;;1.40;1.30;;;;;;;;;;5041370;28;20714;-84
2023/08/07 02:53:11;;;;;;;0.73;0.73;;;;;;;;;;5048676;28;20199;-87
2023/08/07 02:55:43;;;;;;;1.40;1.33;;;;;;;;;;5047798;28;20205;-85
2023/08/07 02:58:12;;;;;;;1.07;1.07;;;;;;;;;;5048897;28;20661;-85
2023/08/07 03:00:43;;;;;;;0.90;0.90;;;;;;;;;;5048121;28;20550;-84
2023/08/07 03:03:13;;;;;;;1.20;1.10;;;;;;;;;;5048454;28;20215;-86
2023/08/07 03:05:49;;;;;;;0.60;0.60;;;;;;;;;;5050920;28;20618;-85
2023/08/07 03:08:19;;;;;;;0.70;0.70;;;;;;;;;;5068753;28;20205;-84
2023/08/07 03:10:53;;;;;;;1.73;0.77;;;;;;;;;;5076563;28;20200;-84
2023/08/07 03:13:27;;;;;;;1.00;1.00;;;;;;;;;;5077431;28;20203;-86
2023/08/07 03:16:20;;;;;;;1.00;1.00;;;;;;;;;;5077101;28;20186;-86
2023/08/07 03:18:53;;;;;;;1.00;1.00;;;;;;;;;;5059961;28;20291;-83
2023/08/07 03:21:23;;;;;;;1.13;1.13;;;;;;;;;;5051678;28;20700;-83
2023/08/07 03:23:51;;;;;;;1.30;1.23;;;;;;;;;;5051903;28;20200;-85
2023/08/07 03:26:23;;;;;;;1.33;1.23;;;;;;;;;;5051420;28;20210;-85
2023/08/07 03:28:54;;;;;;;3.90;1.50;;;;;;;;;;5051886;28;20238;-85
2023/08/07 03:31:24;;;;;;;1.40;1.40;;;;;;;;;;5052554;28;20237;-86
2023/08/07 03:33:55;;;;;;;0.80;0.80;;;;;;;;;;5052389;28;20660;-83
2023/08/07 03:36:29;;;;;;;1.25;1.25;;;;;;;;;;5052204;28;20243;-86
2023/08/07 03:39:00;;;;;;;1.67;1.58;;;;;;;;;;5052464;28;20235;-84
2023/08/07 03:41:32;;;;;;;1.40;1.30;;;;;;;;;;5044920;28;20285;-85
2023/08/07 03:44:03;;;;;;;0.77;0.77;;;;;;;;;;5052766;28;20256;-85
2023/08/07 03:46:35;;;;;;;1.27;1.27;;;;;;;;;;5052006;28;20281;-85
2023/08/07 03:49:04;;;;;;;1.25;1.25;;;;;;;;;;5052485;28;20283;-86
2023/08/07 03:51:36;;;;;;;1.10;1.10;;;;;;;;;;5055783;28;20222;-84
2023/08/07 03:54:07;;;;;;;1.20;1.20;;;;;;;;;;5051615;28;20213;-83
2023/08/07 03:56:40;;;;;;;1.25;1.25;;;;;;;;;;5050915;28;20285;-84
2023/08/07 03:59:14;;;;;;;0.90;0.90;;;;;;;;;;5044390;28;20206;-84
2023/08/07 04:01:42;;;;;;;1.08;1.08;;;;;;;;;;5051843;28;20222;-85
2023/08/07 04:04:16;;;;;;;2.13;1.50;;;;;;;;;;5051454;28;20587;-84
2023/08/07 04:06:47;;;;;;;1.17;1.17;;;;;;;;;;5050540;28;20184;-85
2023/08/07 04:09:18;;;;;;;0.95;0.95;;;;;;;;;;5050264;28;20213;-84
2023/08/07 04:11:52;;;;;;;1.08;1.08;;;;;;;;;;5050343;28;20199;-85
2023/08/07 04:14:22;;;;;;;0.80;0.80;;;;;;;;;;5050061;28;20324;-87
2023/08/07 04:16:57;;;;;;;1.85;0.60;;;;;;;;;;5050019;28;20214;-85
2023/08/07 04:19:29;;;;;;;1.25;1.15;;;;;;;;;;5032507;28;20273;-85
2023/08/07 04:22:01;;;;;;;0.90;0.90;;;;;;;;;;5043314;28;20237;-87
2023/08/07 04:24:34;;;;;;;0.80;0.80;;;;;;;;;;5050471;28;20226;-84
2023/08/07 04:27:14;;;;;;;0.90;0.90;;;;;;;;;;5050580;28;20215;-86
2023/08/07 04:29:45;;;;;;;1.02;1.02;;;;;;;;;;5051836;28;20589;-86
2023/08/07 04:32:15;;;;;;;0.90;0.90;;;;;;;;;;5051259;28;20204;-85
2023/08/07 04:35:05;;;;;;;0.70;0.70;;;;;;;;;;5052715;28;20203;-86
2023/08/07 04:38:10;;;;;;;1.42;1.10;;;;;;;;;;5044724;28;20639;-86
2023/08/07 04:41:04;;;;;;;1.00;1.00;;;;;;;;;;5046834;28;20294;-85
2023/08/07 04:46:48;;;;;;;0.93;0.93;;;;;;;;;;5063137;28;20217;-87
2023/08/07 04:52:49;;;;;;;0.82;0.82;;;;;;;;;;5062584;28;20207;-87
2023/08/07 04:55:34;;;;;;;1.00;1.00;;;;;;;;;;5060052;28;20662;-87
2023/08/07 05:01:16;;;;;;;0.85;0.85;;;;;;;;;;5060290;28;20258;-87
2023/08/07 05:03:48;;;;;;;1.05;1.05;;;;;;;;;;5056935;28;20743;-88
2023/08/07 05:06:41;;;;;;;0.90;0.90;;;;;;;;;;5045541;28;20206;-86
2023/08/07 05:09:15;;;;;;;0.90;0.90;;;;;;;;;;5043652;28;20310;-87
2023/08/07 05:12:11;;;;;;;0.80;0.80;;;;;;;;;;5051306;28;20284;-87
2023/08/07 05:14:45;;;;;;;0.80;0.80;;;;;;;;;;5055148;28;20210;-85
2023/08/07 05:17:29;;;;;;;0.70;0.70;;;;;;;;;;5061077;28;20203;-84
2023/08/07 05:20:05;;;;;;;0.77;0.77;;;;;;;;;;5063644;28;20269;-86
2023/08/07 05:22:40;;;;;;;2.70;1.15;;;;;;;;;;5046600;28;20206;-85
2023/08/07 05:30:53;;;;;;;1.10;1.10;;;;;;;;;;5043778;28;20277;-86
2023/08/07 05:33:47;;;;;;;1.58;1.58;;;;;;;;;;5048094;28;20291;-86
2023/08/07 05:39:24;;;;;;;0.73;0.73;;;;;;;;;;5051876;28;20210;-86
2023/08/07 05:42:02;;;;;;;0.80;0.80;;;;;;;;;;5052820;28;20195;-87
2023/08/07 05:44:47;;;;;;;0.80;0.80;;;;;;;;;;5054222;28;20213;-87
2023/08/07 05:50:08;;;;;;;0.77;0.77;;;;;;;;;;5040429;28;20210;-87
2023/08/07 06:01:49;;;;;;;2.65;0.88;;;;;;;;;;5045978;28;20258;-87
2023/08/07 06:05:01;;;;;;;1.17;0.80;;;;;;;;;;5052452;28;20199;-86
2023/08/07 06:08:24;;;;;;;0.82;0.80;;;;;;;;;;5050565;28;20586;-87
2023/08/07 06:11:17;;;;;;;1.00;1.00;;;;;;;;;;5054552;28;20349;-87
2023/08/07 06:17:16;;;;;;;0.93;0.93;;;;;;;;;;5050359;28;20241;-86
2023/08/07 06:20:26;;;;;;;0.70;0.70;;;;;;;;;;5047947;28;20192;-88
2023/08/07 06:28:52;;;;;;;1.00;1.00;;;;;;;;;;5042533;28;20218;-86
2023/08/07 06:34:41;;;;;;;0.80;0.80;;;;;;;;;;5042633;28;20237;-87
2023/08/07 06:37:16;;;;;;;0.52;0.52;;;;;;;;;;5048150;28;20224;-86
2023/08/07 06:43:02;;;;;;;0.43;0.43;;;;;;;;;;5052986;28;20206;-88
2023/08/07 06:49:06;;;;;;;3.03;0.70;;;;;;;;;;5049519;28;20205;-87
2023/08/07 06:51:41;;;;;;;1.73;0.60;;;;;;;;;;5049627;28;20226;-86
2023/08/07 06:54:13;;;;;;;0.47;0.47;;;;;;;;;;5051776;28;20301;-86
2023/08/07 06:56:49;;;;;;;0.50;0.50;;;;;;;;;;5051336;28;20206;-86
2023/08/07 06:59:23;;;;;;;0.30;0.30;;;;;;;;;;5050671;28;20602;-88
2023/08/07 07:04:57;;;;;;;0.98;0.98;;;;;;;;;;5051663;28;20238;-86
2023/08/07 07:11:00;;;;;;;0.57;0.57;;;;;;;;;;5061729;28;20296;-88
2023/08/07 07:13:38;;;;;;;0.65;0.65;;;;;;;;;;5067589;28;20205;-86
2023/08/07 07:16:11;;;;;;;0.55;0.55;;;;;;;;;;5075570;28;20223;-88
2023/08/07 07:18:44;;;;;;;0.45;0.45;;;;;;;;;;5075996;28;20203;-87
2023/08/07 07:21:35;;;;;;;0.60;0.60;;;;;;;;;;5069480;28;20400;-85
2023/08/07 07:24:28;;;;;;;0.60;0.60;;;;;;;;;;5060430;28;20533;-86
2023/08/07 07:27:13;;;;;;;0.40;0.40;;;;;;;;;;5052396;28;20294;-86
2023/08/07 07:29:47;;;;;;;1.15;1.15;;;;;;;;;;5052623;28;20238;-88
2023/08/07 07:32:43;;;;;;;0.50;0.50;;;;;;;;;;5052737;28;20313;-86
2023/08/07 07:35:17;;;;;;;0.50;0.50;;;;;;;;;;5051539;28;20194;-86
2023/08/07 07:41:02;;;;;;;;;;;;;;;;;;;;;
2023/08/07 07:43:40;;;;;;;0.50;0.50;;;;;;;;;;5043895;28;20205;-87
2023/08/07 07:46:24;;;;;;;0.50;0.50;;;;;;;;;;5051727;28;20202;-87
2023/08/07 07:51:52;;;;;;;0.70;0.70;;;;;;;;;;5050184;28;20233;-86
2023/08/07 07:54:39;;;;;;;0.40;0.40;;;;;;;;;;5052473;28;20227;-87
2023/08/07 07:57:11;;;;;;;0.75;0.75;;;;;;;;;;5047897;28;20206;-86
2023/08/07 07:59:44;;;;;;;0.80;0.80;;;;;;;;;;5051617;28;20202;-87
2023/08/07 08:02:29;;;;;;;0.60;0.60;;;;;;;;;;5052746;28;20230;-86
2023/08/07 08:05:16;;;;;;;1.50;0.90;;;;;;;;;;5052344;28;20206;-87
2023/08/07 08:07:51;;;;;;;1.95;0.75;;;;;;;;;;5052804;28;20195;-87
2023/08/07 08:10:33;;;;;;;0.60;0.60;;;;;;;;;;5052096;28;20253;-88
2023/08/07 08:13:25;;;;;;;2.55;0.60;;;;;;;;;;5050496;28;20652;-87
2023/08/07 08:15:59;;;;;;;0.45;0.45;;;;;;;;;;5052572;28;20212;-88
2023/08/07 08:18:57;;;;;;;0.95;0.63;;;;;;;;;;5051345;28;20210;-87
2023/08/07 08:24:31;;;;;;;0.50;0.50;;;;;;;;;;5049714;28;20750;-87
2023/08/07 08:27:11;;;;;;;0.70;0.70;;;;;;;;;;5052075;28;20274;-87
2023/08/07 08:29:44;;;;;;;0.47;0.47;;;;;;;;;;5049782;28;20227;-87
2023/08/07 08:32:30;;;;;;;0.60;0.60;;;;;;;;;;5053196;28;20238;-88
2023/08/07 08:37:52;;;;;;;0.40;0.40;;;;;;;;;;5053366;28;20230;-89
2023/08/07 08:40:23;;;;;;;0.63;0.50;;;;;;;;;;5053568;28;20211;-88
2023/08/07 08:42:57;;;;;;;0.50;0.50;;;;;;;;;;5052361;28;20207;-88
2023/08/07 08:45:28;;;;;;;0.70;0.70;;;;;;;;;;5052757;28;20218;-87
2023/08/07 08:48:05;;;;;;;0.70;0.70;;;;;;;;;;5053345;28;20230;-88
2023/08/07 08:50:44;;;;;;;0.55;0.55;;;;;;;;;;5052137;28;20231;-88
2023/08/07 08:53:42;;;;;;;0.40;0.40;;;;;;;;;;5051576;28;20203;-87
2023/08/07 08:56:12;;;;;;;1.48;0.50;;;;;;;;;;5047095;28;20246;-88
2023/08/07 08:58:47;;;;;;;0.40;0.40;;;;;;;;;;5053051;28;20196;-88
2023/08/07 09:01:19;;;;;;;0.50;0.50;;;;;;;;;;5043573;28;20264;-87
2023/08/07 09:03:52;;;;;;;0.60;0.60;;;;;;;;;;5051696;28;20234;-88
2023/08/07 09:06:25;;;;;;;0.55;0.55;;;;;;;;;;5050052;28;20223;-87
2023/08/07 09:09:02;;;;;;;0.60;0.60;;;;;;;;;;5054718;28;20215;-88
2023/08/07 09:11:40;;;;;;;0.50;0.50;;;;;;;;;;5048947;28;20231;-87
2023/08/07 09:14:12;;;;;;;1.02;0.65;;;;;;;;;;5045315;28;20231;-87
2023/08/07 09:16:48;;;;;;;0.60;0.60;;;;;;;;;;5042743;28;20734;-88
2023/08/07 09:19:19;;;;;;;0.98;0.98;;;;;;;;;;5048563;28;20232;-87
2023/08/07 09:21:57;;;;;;;0.57;0.57;;;;;;;;;;5045270;28;20236;-87
2023/08/07 09:24:31;;;;;;;0.60;0.60;;;;;;;;;;5044965;28;20318;-88
2023/08/07 09:27:19;;;;;;;0.65;0.65;;;;;;;;;;5046597;28;20315;-88
2023/08/07 09:29:51;;;;;;;0.70;0.70;;;;;;;;;;5047428;28;20305;-87
2023/08/07 09:32:22;;;;;;;0.63;0.40;;;;;;;;;;5031235;28;20242;-87
2023/08/07 09:35:19;;;;;;;0.70;0.70;;;;;;;;;;5047627;28;20348;-88
2023/08/07 09:37:52;;;;;;;0.43;0.43;;;;;;;;;;5040459;28;20253;-87
2023/08/07 09:40:23;;;;;;;0.60;0.60;;;;;;;;;;5049251;28;20238;-87
2023/08/07 09:43:04;;;;;;;0.60;0.60;;;;;;;;;;5039621;28;20231;-88
2023/08/07 09:45:43;;;;;;;0.50;0.50;;;;;;;;;;5048523;28;20337;-87
2023/08/07 09:48:29;;;;;;;0.65;0.65;;;;;;;;;;5042513;28;20234;-88
2023/08/07 09:51:08;;;;;;;0.60;0.60;;;;;;;;;;5048114;28;20516;-87
2023/08/07 09:54:10;;;;;;;0.57;0.57;;;;;;;;;;5045116;28;20234;-88
2023/08/07 09:56:39;;;;;;;0.50;0.50;;;;;;;;;;5041169;28;20226;-87
2023/08/07 09:59:09;;;;;;;0.60;0.60;;;;;;;;;;5027086;28;20243;-88
2023/08/07 10:02:01;;;;;;;1.13;1.00;;;;;;;;;;5049083;28;20235;-88
2023/08/07 10:05:04;;;;;;;0.60;0.60;;;;;;;;;;5026418;28;20288;-87
2023/08/07 10:13:12;;;;;;;0.60;0.60;;;;;;;;;;5032946;28;20693;-88
2023/08/07 10:21:31;;;;;;;0.80;0.60;;;;;;;;;;5055590;28;20223;-87
2023/08/07 10:27:27;;;;;;;1.93;0.80;;;;;;;;;;5044711;28;20438;-87
2023/08/07 10:30:10;;;;;;;0.63;0.63;;;;;;;;;;5047032;28;20231;-87
2023/08/07 10:35:34;;;;;;;0.47;0.47;;;;;;;;;;5039924;28;20235;-87
2023/08/07 10:38:12;;;;;;;1.05;0.88;;;;;;;;;;5047059;28;20235;-88
2023/08/07 10:41:05;;;;;;;0.68;0.68;;;;;;;;;;5041404;28;20794;-88
2023/08/07 10:47:07;;;;;;;0.93;0.70;;;;;;;;;;5034629;28;20306;-87
2023/08/07 10:49:40;;;;;;;0.50;0.50;;;;;;;;;;5036461;28;20241;-88
2023/08/07 10:52:26;;;;;;;0.60;0.60;;;;;;;;;;5049051;28;20235;-87
2023/08/07 10:58:05;;;;;;;0.98;0.73;;;;;;;;;;5030138;28;20219;-86
2023/08/07 11:00:44;;;;;;;0.57;0.57;;;;;;;;;;5047973;28;20369;-87
2023/08/07 11:03:26;;;;;;;0.57;0.57;;;;;;;;;;5046530;28;20829;-87
2023/08/07 11:06:03;;;;;;;1.40;0.80;;;;;;;;;;5033716;28;20255;-88
2023/08/07 11:08:37;;;;;;;0.60;0.57;;;;;;;;;;5048305;28;20231;-88
2023/08/07 11:11:16;;;;;;;0.68;0.68;;;;;;;;;;5041034;28;20257;-87
2023/08/07 11:13:56;;;;;;;0.50;0.50;;;;;;;;;;5048271;28;20262;-87
2023/08/07 11:16:32;;;;;;;0.52;0.52;;;;;;;;;;5041069;28;20284;-87
2023/08/07 11:19:10;;;;;;;0.70;0.70;;;;;;;;;;5049753;28;20223;-87
2023/08/07 11:21:43;;;;;;;0.57;0.57;;;;;;;;;;5052404;28;20318;-88
2023/08/07 11:24:15;;;;;;;0.63;0.63;;;;;;;;;;5062037;28;20231;-87
2023/08/07 11:26:45;;;;;;;0.60;0.60;;;;;;;;;;5049657;28;20227;-87
2023/08/07 11:29:16;;;;;;;0.70;0.70;;;;;;;;;;5071950;28;20250;-83
2023/08/07 11:31:47;;;;;;;0.70;0.70;;;;;;;;;;5060090;28;20231;-87
2023/08/07 11:34:22;;;;;;;0.63;0.63;;;;;;;;;;5052118;28;20675;-87
2023/08/07 11:37:08;;;;;;;0.60;0.60;;;;;;;;;;5049249;28;20333;-87
2023/08/07 11:43:10;;;;;;;0.70;0.70;;;;;;;;;;5022372;28;20242;-87
2023/08/07 11:45:41;;;;;;;0.88;0.60;;;;;;;;;;5044358;28;20292;-87
2023/08/07 11:51:11;;;;;;;0.82;0.70;;;;;;;;;;5047026;28;20743;-87
2023/08/07 11:54:10;;;;;;;0.70;0.70;;;;;;;;;;5043419;28;20242;-87
2023/08/07 12:00:00;;;;;;;0.73;0.73;;;;;;;;;;5045564;28;20744;-86
2023/08/07 12:02:30;;;;;;;0.73;0.73;;;;;;;;;;5033878;28;20228;-88
2023/08/07 12:05:18;;;;;;;0.57;0.57;;;;;;;;;;5047489;28;20840;-88
2023/08/07 12:07:46;;;;;;;0.68;0.68;;;;;;;;;;5052186;28;20233;-86
2023/08/07 12:10:17;;;;;;;1.02;0.68;;;;;;;;;;5051731;28;20524;-87
2023/08/07 12:12:48;;;;;;;0.60;0.60;;;;;;;;;;5050122;28;20266;-87
2023/08/07 12:18:46;;;;;;;1.52;0.95;;;;;;;;;;5036287;28;20231;-87
2023/08/07 12:21:33;;;;;;;0.68;0.68;;;;;;;;;;5050480;28;20231;-87
2023/08/07 12:24:22;;;;;;;0.65;0.65;;;;;;;;;;5036360;28;20660;-88
2023/08/07 12:26:57;;;;;;;0.82;0.82;;;;;;;;;;5051309;28;20600;-87
2023/08/07 12:29:39;;;;;;;0.60;0.60;;;;;;;;;;5051242;28;20243;-88
2023/08/07 12:32:21;;;;;;;0.57;0.57;;;;;;;;;;5051238;28;20237;-87
2023/08/07 12:38:19;;;;;;;0.50;0.50;;;;;;;;;;5050147;28;20231;-88
2023/08/07 12:40:55;;;;;;;0.47;0.47;;;;;;;;;;5044132;28;20232;-87
2023/08/07 12:43:28;;;;;;;0.50;0.50;;;;;;;;;;5050404;28;20393;-86
2023/08/07 12:46:05;;;;;;;0.80;0.80;;;;;;;;;;5045302;28;20215;-87
2023/08/07 12:48:39;;;;;;;0.63;0.63;;;;;;;;;;5046563;28;20234;-86
2023/08/07 12:51:11;;;;;;;1.20;1.10;;;;;;;;;;5047720;28;20314;-87
2023/08/07 12:53:51;;;;;;;1.23;0.77;;;;;;;;;;5047328;28;20646;-86
2023/08/07 12:56:25;;;;;;;0.70;0.70;;;;;;;;;;5029922;28;20323;-87
2023/08/07 12:58:58;;;;;;;0.80;0.80;;;;;;;;;;5046355;28;20246;-86
2023/08/07 13:01:32;;;;;;;0.60;0.60;;;;;;;;;;5048304;28;20235;-86
2023/08/07 13:04:21;;;;;;;0.60;0.60;;;;;;;;;;5048371;28;20245;-85
2023/08/07 13:06:58;;;;;;;0.70;0.70;;;;;;;;;;5041385;28;20235;-87
2023/08/07 13:09:35;;;;;;;0.88;0.88;;;;;;;;;;5039699;28;20230;-89
2023/08/07 13:12:12;;;;;;;0.52;0.52;;;;;;;;;;5031199;28;20801;-86
2023/08/07 13:14:46;;;;;;;0.98;0.60;;;;;;;;;;5042150;28;20215;-84
2023/08/07 13:17:17;;;;;;;1.00;1.00;;;;;;;;;;5029752;28;20223;-85
2023/08/07 13:19:48;;;;;;;0.63;0.63;;;;;;;;;;5039520;28;20216;-87
2023/08/07 13:22:28;;;;;;;0.80;0.80;;;;;;;;;;5032985;28;20234;-86
2023/08/07 13:25:04;;;;;;;0.70;0.70;;;;;;;;;;5040996;28;20300;-86
2023/08/07 13:27:38;;;;;;;13.93;0.70;;;;;;;;;;5040047;28;20234;-86
2023/08/07 13:30:07;;;;;;;0.52;0.52;;;;;;;;;;5044147;28;20259;-85
2023/08/07 13:32:44;;;;;;;3.03;0.60;;;;;;;;;;5040776;28;20789;-86
2023/08/07 13:35:30;;;;;;;0.70;0.70;;;;;;;;;;5050329;28;20215;-87
2023/08/07 13:41:20;;;;;;;1.02;0.77;;;;;;;;;;5045534;28;20257;-87
2023/08/07 13:43:53;;;;;;;0.52;0.52;;;;;;;;;;5046665;28;20223;-87
2023/08/07 13:46:30;;;;;;;0.50;0.50;;;;;;;;;;5046201;28;20341;-87
2023/08/07 13:49:14;;;;;;;0.45;0.45;;;;;;;;;;5038824;28;20262;-87
2023/08/07 13:51:54;;;;;;;0.90;0.90;;;;;;;;;;5040419;28;20235;-87
2023/08/07 13:57:34;;;;;;;0.65;0.65;;;;;;;;;;4959959;28;20234;-86
2023/08/07 14:00:19;;;;;;;0.70;0.70;;;;;;;;;;4965757;28;20320;-86
2023/08/07 14:02:49;;;;;;;0.85;0.85;;;;;;;;;;5051883;28;20256;-85
2023/08/07 14:05:30;;;;;;;1.05;1.00;;;;;;;;;;5056044;28;20223;-86
2023/08/07 14:08:04;;;;;;;0.65;0.65;;;;;;;;;;5048571;28;20660;-87
2023/08/07 14:10:36;;;;;;;0.98;0.98;;;;;;;;;;5053241;28;20226;-87
2023/08/07 14:13:08;;;;;;;1.00;0.70;;;;;;;;;;5034513;28;20250;-86
2023/08/07 14:15:43;;;;;;;0.60;0.60;;;;;;;;;;5049675;28;20219;-86
2023/08/07 14:18:21;;;;;;;1.17;0.75;;;;;;;;;;5052510;28;20309;-86
2023/08/07 14:20:57;;;;;;;1.02;0.82;;;;;;;;;;5049349;28;20305;-86
2023/08/07 14:23:36;;;;;;;0.70;0.70;;;;;;;;;;5020244;28;20238;-86
2023/08/07 14:26:07;;;;;;;0.43;0.43;;;;;;;;;;5046668;28;20222;-87
2023/08/07 14:28:46;;;;;;;0.70;0.70;;;;;;;;;;5045008;28;20235;-86
2023/08/07 14:31:36;;;;;;;0.65;0.65;;;;;;;;;;5048492;28;20324;-88
2023/08/07 14:34:09;;;;;;;1.55;1.27;;;;;;;;;;5034510;28;20259;-87
2023/08/07 14:36:46;;;;;;;0.75;0.75;;;;;;;;;;5046596;28;20362;-87
2023/08/07 14:39:17;;;;;;;0.60;0.60;;;;;;;;;;5038121;28;20319;-89
2023/08/07 14:41:56;;;;;;;5.65;0.95;;;;;;;;;;5046441;28;20337;-86
2023/08/07 14:44:44;;;;;;;0.50;0.50;;;;;;;;;;5043559;28;20227;-87
2023/08/07 14:47:26;;;;;;;6.63;0.90;;;;;;;;;;5041854;28;20265;-86
2023/08/07 14:50:33;;;;;;;1.10;0.60;;;;;;;;;;5042175;28;20250;-87
2023/08/07 14:53:27;;;;;;;2.25;0.95;;;;;;;;;;5044145;28;20242;-87
2023/08/07 14:56:05;;;;;;;0.70;0.70;;;;;;;;;;5025033;28;20235;-86
2023/08/07 14:58:39;;;;;;;1.38;0.73;;;;;;;;;;5048934;28;20282;-87
2023/08/07 15:01:18;;;;;;;0.57;0.57;;;;;;;;;;5048488;28;20594;-86
2023/08/07 15:03:59;;;;;;;0.65;0.60;;;;;;;;;;5051468;28;20203;-87
2023/08/07 15:06:32;;;;;;;0.50;0.50;;;;;;;;;;5050891;28;20207;-87
2023/08/07 15:09:23;;;;;;;1.75;0.50;;;;;;;;;;5051138;28;20199;-88
2023/08/07 15:12:07;;;;;;;0.50;0.50;;;;;;;;;;5052113;28;20514;-87
2023/08/07 15:14:49;;;;;;;0.98;0.60;;;;;;;;;;5050417;28;20313;-86
2023/08/07 15:27:06;;;;;;;;;;;;;;;;;;;;;
2023/08/07 15:32:33;;;;;;;0.52;0.52;;;;;;;;;;5068263;28;20218;-86
2023/08/07 15:35:18;;;;;;;;;;;;;;;;;;;;;
2023/08/07 15:40:41;;;;;;;0.43;0.43;;;;;;;;;;5060086;28;20196;-86
2023/08/07 15:43:21;;;;;;;0.98;0.80;;;;;;;;;;5061543;28;20203;-85
2023/08/07 15:46:03;;;;;;;0.52;0.52;;;;;;;;;;5049595;28;20203;-86
2023/08/07 15:48:39;;;;;;;0.50;0.50;;;;;;;;;;5050907;28;20198;-86
2023/08/07 15:51:21;;;;;;;1.10;0.60;;;;;;;;;;5047044;28;20208;-86
2023/08/07 15:53:57;;;;;;;0.40;0.40;;;;;;;;;;5044314;28;20296;-85
2023/08/07 15:56:33;;;;;;;0.50;0.50;;;;;;;;;;5050773;28;20697;-86
2023/08/07 15:59:10;;;;;;;0.60;0.60;;;;;;;;;;5048425;28;20199;-86
2023/08/07 16:01:42;;;;;;;1.17;0.60;;;;;;;;;;5049872;28;20716;-85
2023/08/07 16:04:21;;;;;;;0.70;0.70;;;;;;;;;;5044854;28;20203;-86
2023/08/07 16:07:07;;;;;;;1.35;0.68;;;;;;;;;;5046421;28;20214;-86
2023/08/07 16:09:40;;;;;;;0.80;0.80;;;;;;;;;;5046121;28;20214;-87
2023/08/07 16:12:25;;;;;;;0.73;0.73;;;;;;;;;;5050860;28;20234;-86
2023/08/07 16:24:20;;;;;;;0.70;0.70;;;;;;;;;;5040692;28;20528;-88
2023/08/07 16:29:52;;;;;;;0.70;0.70;;;;;;;;;;5045105;28;20505;-88
2023/08/07 16:32:47;;;;;;;0.88;0.70;;;;;;;;;;5046941;28;20560;-88
2023/08/07 16:38:47;;;;;;;0.25;0.25;;;;;;;;;;5048562;23;20327;-86
2023/08/07 16:44:48;;;;;;;0.60;0.60;;;;;;;;;;5001611;28;20216;-87
2023/08/07 16:48:34;;;;;;;0.73;0.73;;;;;;;;;;4978915;28;20221;-89
2023/08/07 16:51:53;;;;;;;0.50;0.50;;;;;;;;;;5007918;28;20287;-89
2023/08/07 16:54:30;;;;;;;1.95;0.80;;;;;;;;;;4996507;28;20236;-87
2023/08/07 16:57:32;;;;;;;0.60;0.60;;;;;;;;;;5004564;28;20607;-86
2023/08/07 17:00:06;;;;;;;0.47;0.47;;;;;;;;;;4990689;28;20260;-86
2023/08/07 17:06:07;;;;;;;1.42;0.88;;;;;;;;;;4999946;28;20240;-87
2023/08/07 17:08:40;;;;;;;0.65;0.65;;;;;;;;;;4990403;28;20721;-86
2023/08/07 17:11:31;;;;;;;0.60;0.60;;;;;;;;;;4998512;28;20698;-87
2023/08/07 17:14:19;;;;;;;1.02;0.95;;;;;;;;;;4972504;28;20248;-87
2023/08/07 17:17:15;;;;;;;1.23;1.20;;;;;;;;;;4988956;28;20233;-88
2023/08/07 17:19:50;;;;;;;1.17;1.08;;;;;;;;;;4993841;28;20283;-87
2023/08/07 17:22:41;;;;;;;0.98;0.98;;;;;;;;;;5008873;28;20747;-88
2023/08/07 17:25:46;;;;;;;0.90;0.90;;;;;;;;;;4994532;28;20581;-87
2023/08/07 17:28:34;;;;;;;1.05;1.05;;;;;;;;;;4989481;28;20231;-87
2023/08/07 17:31:08;;;;;;;1.33;1.33;;;;;;;;;;4990766;28;20272;-88
2023/08/07 17:33:40;;;;;;;1.08;0.90;;;;;;;;;;4999595;28;20307;-87
2023/08/07 17:36:13;;;;;;;1.38;0.82;;;;;;;;;;4978066;28;20722;-87
2023/08/07 17:38:58;;;;;;;1.45;0.93;;;;;;;;;;5023418;28;20246;-87
2023/08/07 17:41:30;;;;;;;0.80;0.80;;;;;;;;;;5010703;28;20255;-87
2023/08/07 17:44:11;;;;;;;1.15;1.15;;;;;;;;;;5028406;28;20248;-87
2023/08/07 17:53:06;;;;;;;0.60;0.60;;;;;;;;;;5027670;28;20231;-87
2023/08/07 17:55:55;;;;;;;1.75;0.75;;;;;;;;;;5008302;28;20227;-88
2023/08/07 18:01:44;;;;;;;2.25;1.88;;;;;;;;;;5011437;28;20231;-87
2023/08/07 18:04:31;;;;;;;3.85;2.97;;;;;;;;;;5018341;28;20221;-87
2023/08/07 18:07:25;;;;;;;7.65;4.47;;;;;;;;;;5010941;28;20223;-86
2023/08/07 18:10:09;;;;;;;8.00;4.82;;;;;;;;;;5019395;28;20256;-87
2023/08/07 18:16:09;;;;;;;;;;;;;;;;;;;;;
2023/08/07 18:27:59;;;;;;;0.82;0.82;;;;;;;;;;5017388;28;20235;-87
2023/08/07 18:30:39;;;;;;;1.27;1.00;;;;;;;;;;5008524;28;20236;-87
2023/08/07 18:33:26;;;;;;;0.73;0.73;;;;;;;;;;5002270;28;20259;-87
2023/08/07 18:35:59;;;;;;;1.10;0.82;;;;;;;;;;5026709;28;20244;-89
2023/08/07 18:38:43;;;;;;;0.82;0.82;;;;;;;;;;5024532;28;20289;-87
2023/08/07 18:41:33;;;;;;;2.25;1.00;;;;;;;;;;5033769;28;20220;-87
2023/08/07 18:44:22;;;;;;;1.02;0.85;;;;;;;;;;5029642;28;20314;-88